Hauptseite
METAR-TAF:

METAR-TAF

Flughäfen :

Fliegerhorst Lechfeld

Lechfeld, Deutschland

Breite: 48-11N, Länge: 010-52E, Höhe: 555 m

Beobachtung

Neuester Wetterbericht von vor 34 Minuten, um 03:20 UTC
Wind 4 kt aus Süd
Temperatur 13°C
Luftfeuchtigkeit 100%
Luftdruck 1020 hPa
Sichtweite 10 km oder mehr
Leicht bewölkt in der Höhe von 30000 ft

METAR: ETSL 160320Z 19004KT 9999 FEW300 13/13 Q1020 BLU+

Zeit: 05:54 (03:54 UTC)

Prognose

Neuester Wetterbericht von vor 14 Stunden und 49 Minuten, um 13:05 UTC
Gültige Prognose vom 15 um 14 UTC bis 15 um 23 UTC
Wind 6 kt aus West/Südwest
Sichtweite: 1400 m
Aufgelockert bewölkt in der Höhe von 4000 ft

TAF: ETSL 151305Z 1514/1523 25006KT 9999 NSW SCT040 CANCEL 1400 BY ETGL

Wetterbeobachtungen und Prognosen von mehr als 4000 Flughäfen (METAR und TAF Bericht).

Die verfügbaren Stationen werden durch gelbe und rote Markierungen auf der Karte dargestellt.

Führen Sie die Maus auf sie, um den Namen der Station zu sehen.

Darauf klicken, um die Beobachtung von Wetterbeobachtungen und Prognosen zu sehen.

Um die Karte zu ändern : klicken Sie auf den grünen Tasten mit einem schwarzen Kreuz Zum Vergrößern, auf den grünen Button mit einem Gedankenstrich zu verkleinern, oder auf die grünen Pfeile für benachbarte Karten.


METAR-TAF: